CDT,Max TemperatureF,Mean TemperatureF,Min TemperatureF,Max Dew PointF,MeanDew PointF,Min DewpointF,Max Humidity, Mean Humidity, Min Humidity, Max Sea Level PressureIn, Mean Sea Level PressureIn, Min Sea Level PressureIn, Max VisibilityMiles, Mean VisibilityMiles, Min VisibilityMiles, Max Wind SpeedMPH, Mean Wind SpeedMPH, Max Gust SpeedMPH,PrecipitationIn, CloudCover, Events, WindDirDegrees
2011-10-1,71,52,32,36,29,25,87,49,19,30.32,30.25,30.19,10,10,7,14,6,18,0.00,0,,155
2011-10-2,80,60,39,37,34,30,81,44,16,30.21,30.17,30.11,10,10,10,14,5,20,0.00,0,,184
2011-10-3,84,62,39,37,35,30,81,43,14,30.20,30.16,30.11,10,10,10,14,5,21,0.00,0,,165
2011-10-4,87,70,53,45,38,36,51,34,18,30.15,30.08,30.00,10,10,10,16,9,22,0.00,0,,171
2011-10-5,86,72,57,46,38,27,63,35,12,30.07,30.03,29.97,10,10,10,21,8,29,0.00,0,,179
2011-10-6,80,68,57,39,38,34,51,35,18,30.00,29.95,29.87,10,10,10,28,13,37,0.00,0,,160
2011-10-7,82,74,66,57,53,39,57,45,33,29.93,29.87,29.84,10,10,10,26,18,44,0.00,2,,187
2011-10-8,77,68,60,57,55,50,82,61,44,30.11,30.03,29.93,10,10,7,21,10,33,0.11,4,Rain,197
2011-10-9,80,68,55,59,52,41,94,60,26,30.18,30.13,30.05,10,10,7,21,7,28,0.00,1,Rain,150
2011-10-10,71,62,53,57,50,45,94,70,38,30.06,29.99,29.91,10,10,7,15,7,21,0.08,3,Rain,182
2011-10-11,77,62,48,54,47,43,93,63,29,29.93,29.85,29.76,10,10,10,16,6,21,0.00,1,,179
2011-10-12,66,58,48,55,50,45,88,77,55,29.77,29.74,29.70,10,10,7,12,4,18,0.02,4,Rain,303
2011-10-13,69,56,44,45,38,27,87,58,26,29.80,29.77,29.73,10,10,10,25,10,33,0.00,0,,306
2011-10-14,60,50,41,39,35,27,87,59,27,29.95,29.86,29.79,10,10,10,28,14,38,0.00,2,,304
2011-10-15,66,47,28,37,29,21,93,56,19,30.02,29.93,29.80,10,10,10,10,5,,0.00,1,,242
2011-10-16,59,50,41,39,32,19,87,55,22,30.03,29.97,29.84,10,10,10,23,12,31,0.00,2,Rain,325
2011-10-17,59,42,24,30,25,19,86,51,23,30.02,29.99,29.97,10,10,10,22,7,28,0.00,0,,290
2011-10-18,51,40,30,30,24,16,87,56,24,30.09,30.04,29.97,10,10,10,28,12,33,0.00,2,,337
2011-10-19,44,32,19,28,23,16,86,65,49,30.15,30.11,30.09,10,10,10,16,10,20,0.00,4,,353
2011-10-20,53,37,21,30,24,19,93,68,33,30.07,30.04,30.00,10,10,7,14,6,17,0.00,0,,331
2011-10-21,66,42,19,34,25,14,86,60,26,30.06,30.04,30.00,10,10,10,14,3,20,0.00,0,,219
2011-10-22,64,45,26,39,31,21,93,60,26,30.15,30.10,30.02,10,10,5,10,1,,0.00,1,,180
2011-10-23,73,54,35,45,38,28,87,63,25,30.00,29.92,29.84,10,10,7,24,7,30,0.00,1,,250
2011-10-24,71,48,26,37,30,25,93,58,17,30.06,30.00,29.88,10,10,10,10,2,,0.00,0,,160
2011-10-25,59,50,42,39,35,32,76,58,42,30.03,29.81,29.72,10,10,10,25,13,32,0.00,0,,44
2011-10-26,50,44,37,37,34,28,93,70,50,30.13,30.09,30.04,10,10,5,15,6,21,0.00,3,,335
2011-10-27,53,36,19,28,22,16,93,60,22,30.13,30.10,30.07,10,10,4,12,4,18,0.00,1,,294
2011-10-28,55,42,28,28,20,12,75,46,20,30.15,30.10,30.06,10,10,10,26,9,33,0.00,1,,295
2011-10-29,57,37,17,25,17,10,74,46,21,30.11,29.98,29.83,10,10,10,23,6,28,0.00,0,,152
2011-10-30,53,44,33,34,27,23,81,53,30,30.03,29.91,29.80,10,10,10,28,11,34,0.00,2,,308
2011-10-31,60,38,17,28,20,12,93,54,19,30.06,29.99,29.89,10,10,7,15,6,22,0.00,0,,197